createdAt,value
2023-06-19T00:02:03.452Z,85.11
2023-06-19T00:04:30.931Z,85.10
2023-06-19T00:07:01.296Z,84.13
2023-06-19T00:09:29.934Z,84.78
2023-06-19T00:11:57.231Z,85.13
2023-06-19T00:14:24.772Z,85.50
2023-06-19T00:16:52.056Z,85.65
2023-06-19T00:19:19.910Z,85.14
2023-06-19T00:21:49.493Z,84.66
2023-06-19T00:24:18.414Z,84.42
2023-06-19T00:26:47.201Z,85.06
2023-06-19T00:29:14.464Z,85.40
2023-06-19T00:31:41.707Z,85.42
2023-06-19T00:34:09.040Z,85.49
2023-06-19T00:36:36.294Z,85.19
2023-06-19T00:39:03.575Z,84.71
2023-06-19T00:41:31.878Z,85.00
2023-06-19T00:44:02.937Z,84.87
2023-06-19T00:46:30.375Z,85.06
2023-06-19T00:48:58.882Z,85.79
2023-06-19T00:51:26.209Z,85.47
2023-06-19T00:53:53.620Z,85.10
2023-06-19T00:56:21.232Z,85.15
2023-06-19T00:58:48.761Z,84.83
2023-06-19T01:01:17.702Z,84.46
2023-06-19T01:03:45.278Z,84.04
2023-06-19T01:06:18.301Z,83.83
2023-06-19T01:09:01.981Z,83.74
2023-06-19T01:11:34.593Z,84.40
2023-06-19T01:14:09.668Z,84.43
2023-06-19T01:16:38.981Z,84.45
2023-06-19T01:19:11.586Z,84.72
2023-06-19T01:21:39.957Z,83.05
2023-06-19T01:24:09.701Z,82.83
2023-06-19T01:26:37.250Z,83.51
2023-06-19T01:29:05.074Z,84.16
2023-06-19T01:31:36.286Z,84.56
2023-06-19T01:34:07.970Z,85.26
2023-06-19T01:36:36.890Z,85.71
2023-06-19T01:39:05.047Z,85.43
2023-06-19T01:41:35.269Z,83.94
2023-06-19T01:44:03.284Z,83.99
2023-06-19T01:46:30.795Z,85.27
2023-06-19T01:48:58.565Z,85.24
2023-06-19T01:51:25.866Z,85.05
2023-06-19T01:53:53.159Z,85.86
2023-06-19T01:56:20.644Z,85.86
2023-06-19T01:58:49.323Z,85.15
2023-06-19T02:01:17.704Z,84.95
2023-06-19T02:03:46.338Z,85.29
2023-06-19T02:06:13.949Z,85.86
2023-06-19T02:08:41.206Z,86.32
2023-06-19T02:11:09.529Z,84.21
2023-06-19T02:13:40.004Z,83.67
2023-06-19T02:16:10.425Z,83.90
2023-06-19T02:18:37.711Z,85.83
2023-06-19T02:21:05.211Z,86.54
2023-06-19T02:23:32.506Z,86.29
2023-06-19T02:26:00.851Z,85.17
2023-06-19T02:28:29.437Z,85.42
2023-06-19T02:30:56.913Z,86.37
2023-06-19T02:33:25.611Z,86.77
2023-06-19T02:35:54.185Z,86.88
2023-06-19T02:38:21.755Z,86.92
2023-06-19T02:40:49.175Z,86.95
2023-06-19T02:43:16.472Z,86.17
2023-06-19T02:45:43.788Z,86.03
2023-06-19T02:48:11.099Z,86.92
2023-06-19T02:50:39.721Z,87.56
2023-06-19T02:53:07.038Z,87.83
2023-06-19T02:55:34.510Z,87.69
2023-06-19T02:58:01.801Z,87.37
2023-06-19T03:00:29.427Z,87.36
2023-06-19T03:02:56.773Z,87.90
2023-06-19T03:05:26.931Z,87.34
2023-06-19T03:07:55.705Z,87.11
2023-06-19T03:10:24.644Z,86.95
2023-06-19T03:12:53.080Z,87.63
2023-06-19T03:15:20.464Z,88.06
2023-06-19T03:17:48.755Z,88.30
2023-06-19T03:20:17.396Z,87.34
2023-06-19T03:22:44.683Z,87.22
2023-06-19T03:25:13.328Z,86.52
2023-06-19T03:27:40.656Z,87.24
2023-06-19T03:30:08.625Z,87.10
2023-06-19T03:32:35.953Z,86.95
2023-06-19T03:35:03.686Z,86.78
2023-06-19T03:37:32.144Z,86.23
2023-06-19T03:39:59.530Z,86.79
2023-06-19T03:42:29.662Z,87.12
2023-06-19T03:44:57.159Z,87.50
2023-06-19T03:47:24.494Z,87.63
2023-06-19T03:49:54.589Z,87.45
2023-06-19T03:52:22.519Z,87.10
2023-06-19T03:54:50.900Z,86.46
2023-06-19T03:57:18.243Z,86.67
2023-06-19T03:59:46.955Z,86.90
2023-06-19T04:02:14.246Z,87.12
2023-06-19T04:04:41.528Z,86.55
2023-06-19T04:07:09.165Z,86.13
2023-06-19T04:09:36.641Z,86.03
2023-06-19T04:12:04.589Z,85.91
2023-06-19T04:14:34.717Z,84.92
2023-06-19T04:17:03.391Z,84.54
2023-06-19T04:19:30.631Z,84.29
2023-06-19T04:21:58.138Z,83.34
2023-06-19T04:24:25.427Z,83.92
2023-06-19T04:26:52.710Z,83.76
2023-06-19T04:29:21.895Z,83.38
2023-06-19T04:31:49.209Z,82.33
2023-06-19T04:34:19.145Z,82.12
2023-06-19T04:36:46.456Z,82.35
2023-06-19T04:39:13.746Z,82.39
2023-06-19T04:41:43.282Z,81.31
2023-06-19T04:44:10.635Z,80.59
2023-06-19T04:46:38.117Z,80.89
2023-06-19T04:49:07.036Z,81.65
2023-06-19T04:51:35.844Z,81.43
2023-06-19T04:54:03.659Z,80.33
2023-06-19T04:56:30.934Z,80.46
2023-06-19T04:58:59.698Z,80.81
2023-06-19T05:01:28.070Z,80.62
2023-06-19T05:03:57.394Z,81.57
2023-06-19T05:06:25.050Z,80.09
2023-06-19T05:08:53.777Z,79.72
2023-06-19T05:11:21.057Z,79.04
2023-06-19T05:13:48.360Z,79.33
2023-06-19T05:16:15.637Z,78.92
2023-06-19T05:18:46.739Z,78.44
2023-06-19T05:21:14.034Z,78.65
2023-06-19T05:23:41.390Z,78.71
2023-06-19T05:26:10.110Z,77.93
2023-06-19T05:28:37.409Z,77.63
2023-06-19T05:31:04.685Z,78.52
2023-06-19T05:33:31.955Z,77.89
2023-06-19T05:35:59.287Z,76.56
2023-06-19T05:38:26.605Z,77.69
2023-06-19T05:40:53.889Z,77.38
2023-06-19T05:43:22.846Z,75.87
2023-06-19T05:45:50.122Z,76.30
2023-06-19T05:48:17.378Z,74.88
2023-06-19T05:50:44.723Z,75.58
2023-06-19T05:53:14.730Z,75.26
2023-06-19T05:55:43.135Z,74.72
2023-06-19T05:58:13.119Z,74.69
2023-06-19T06:00:41.814Z,74.62
2023-06-19T06:03:10.428Z,74.11
2023-06-19T06:05:39.237Z,75.10
2023-06-19T06:08:06.779Z,74.87
2023-06-19T06:10:36.931Z,75.06
2023-06-19T06:13:04.830Z,74.36
2023-06-19T06:15:31.911Z,74.08
2023-06-19T06:18:00.532Z,72.62
2023-06-19T06:20:27.943Z,73.07
2023-06-19T06:22:55.216Z,74.48
2023-06-19T06:25:22.549Z,74.48
2023-06-19T06:27:51.093Z,73.90
2023-06-19T06:30:20.583Z,73.33
2023-06-19T06:32:48.242Z,73.89
2023-06-19T06:35:16.931Z,72.23
2023-06-19T06:37:44.216Z,72.77
2023-06-19T06:40:11.759Z,72.62
2023-06-19T06:42:39.267Z,72.31
2023-06-19T06:45:07.662Z,73.47
2023-06-19T06:47:35.834Z,72.48
2023-06-19T06:50:03.517Z,73.05
2023-06-19T06:52:31.994Z,71.69
2023-06-19T06:54:59.146Z,71.68
2023-06-19T06:57:26.455Z,71.08
2023-06-19T06:59:53.740Z,71.51
2023-06-19T07:02:21.161Z,71.02
2023-06-19T07:04:49.382Z,71.08
2023-06-19T07:07:16.932Z,71.27
2023-06-19T07:09:45.550Z,70.99
2023-06-19T07:12:12.810Z,70.83
2023-06-19T07:14:42.752Z,70.32
2023-06-19T07:17:10.176Z,69.80
2023-06-19T07:19:37.491Z,68.88
2023-06-19T07:22:05.406Z,69.32
2023-06-19T07:24:32.717Z,68.30
2023-06-19T07:27:01.611Z,67.93
2023-06-19T07:29:28.958Z,67.27
2023-06-19T07:31:56.206Z,66.61
2023-06-19T07:34:23.475Z,66.13
2023-06-19T07:36:51.765Z,65.17
2023-06-19T07:39:19.038Z,64.86
2023-06-19T07:41:46.321Z,64.73
2023-06-19T07:44:14.981Z,65.95
2023-06-19T07:46:42.407Z,64.71
2023-06-19T07:49:09.552Z,64.18
2023-06-19T07:51:36.657Z,64.28
2023-06-19T07:54:03.985Z,64.67
2023-06-19T07:56:32.291Z,64.50
2023-06-19T07:58:59.562Z,61.56
2023-06-19T08:01:28.310Z,62.15
2023-06-19T08:03:58.457Z,62.14
2023-06-19T08:06:25.853Z,61.98
2023-06-19T08:08:53.142Z,62.53
2023-06-19T08:11:20.439Z,61.72
2023-06-19T08:13:47.709Z,61.36
2023-06-19T08:16:15.268Z,62.68
2023-06-19T08:18:45.800Z,63.10
2023-06-19T08:21:14.305Z,63.02
2023-06-19T08:23:41.543Z,62.35
2023-06-19T08:26:10.640Z,60.47
2023-06-19T08:28:38.670Z,61.16
2023-06-19T08:31:06.000Z,61.63
2023-06-19T08:33:36.611Z,59.86
2023-06-19T08:36:05.555Z,61.21
2023-06-19T08:38:33.132Z,59.87
2023-06-19T08:41:00.496Z,59.35
2023-06-19T08:43:27.943Z,58.89
2023-06-19T08:46:04.659Z,60.03
2023-06-19T08:48:32.077Z,61.93
2023-06-19T08:50:59.153Z,59.51
2023-06-19T08:53:27.704Z,59.25
2023-06-19T08:55:54.962Z,59.90
2023-06-19T08:58:24.401Z,60.34
2023-06-19T09:00:51.654Z,60.37
2023-06-19T09:03:21.638Z,60.45
2023-06-19T09:05:49.441Z,59.45
2023-06-19T09:08:17.260Z,60.58
2023-06-19T09:10:55.848Z,59.70
2023-06-19T09:13:24.721Z,59.86
2023-06-19T09:15:59.228Z,60.31
2023-06-19T09:18:26.868Z,59.23
2023-06-19T09:20:55.225Z,60.94
2023-06-19T09:23:24.663Z,59.50
2023-06-19T09:25:55.150Z,59.53
2023-06-19T09:28:24.075Z,58.79
2023-06-19T09:30:56.009Z,58.78
2023-06-19T09:33:23.907Z,57.89
2023-06-19T09:35:51.532Z,57.29
2023-06-19T09:38:22.096Z,58.35
2023-06-19T09:40:49.695Z,57.51
2023-06-19T09:43:23.232Z,56.17
2023-06-19T09:45:50.882Z,56.58
2023-06-19T09:48:21.005Z,58.15
2023-06-19T09:50:51.477Z,58.54
2023-06-19T09:53:20.056Z,59.23
2023-06-19T09:55:48.823Z,59.35
2023-06-19T09:58:16.406Z,59.87
2023-06-19T10:00:49.871Z,59.99
2023-06-19T10:03:18.471Z,60.54
2023-06-19T10:05:45.883Z,61.16
2023-06-19T10:08:14.309Z,58.81
2023-06-19T10:10:48.233Z,59.69
2023-06-19T10:13:16.778Z,59.62
2023-06-19T10:15:46.024Z,58.89
2023-06-19T10:18:15.377Z,58.39
2023-06-19T10:20:46.187Z,59.16
2023-06-19T10:23:16.658Z,59.84
2023-06-19T10:25:45.993Z,61.26
2023-06-19T10:28:20.916Z,58.45
2023-06-19T10:30:55.027Z,57.73
2023-06-19T10:33:23.194Z,56.22
2023-06-19T10:35:50.574Z,56.31
2023-06-19T10:38:17.810Z,57.14
2023-06-19T10:40:45.702Z,55.66
2023-06-19T10:43:13.528Z,56.51
2023-06-19T10:45:40.876Z,55.89
2023-06-19T10:48:09.660Z,55.96
2023-06-19T10:50:38.505Z,51.73
2023-06-19T10:53:05.871Z,52.60
2023-06-19T10:55:36.169Z,52.22
2023-06-19T10:58:03.695Z,52.86
2023-06-19T11:00:33.871Z,51.70
2023-06-19T11:03:01.292Z,52.03
2023-06-19T11:05:30.171Z,54.02
2023-06-19T11:07:59.000Z,53.06
2023-06-19T11:10:28.433Z,53.38
2023-06-19T11:12:56.981Z,52.58
2023-06-19T11:15:30.042Z,51.89
2023-06-19T11:17:58.287Z,51.58
2023-06-19T11:20:25.746Z,51.44
2023-06-19T11:23:00.742Z,50.92
2023-06-19T11:25:36.648Z,50.90
2023-06-19T11:28:05.489Z,50.43
2023-06-19T11:30:34.757Z,48.37
2023-06-19T11:33:02.193Z,45.94
2023-06-19T11:35:34.067Z,46.57
2023-06-19T11:38:03.223Z,45.07
2023-06-19T11:40:40.314Z,46.70
2023-06-19T11:43:07.562Z,46.85
2023-06-19T11:45:45.093Z,48.27
2023-06-19T11:48:12.576Z,51.21
2023-06-19T11:50:39.907Z,49.24
2023-06-19T11:53:08.568Z,49.65
2023-06-19T11:55:37.051Z,50.16
2023-06-19T11:58:06.468Z,48.88
2023-06-19T12:00:33.747Z,48.85
2023-06-19T12:03:01.092Z,51.55
2023-06-19T12:05:28.603Z,50.12
2023-06-19T12:07:55.709Z,49.63
2023-06-19T12:10:24.435Z,49.28
2023-06-19T12:12:51.874Z,49.58
2023-06-19T12:15:21.237Z,47.61
2023-06-19T12:17:49.758Z,48.20
2023-06-19T12:20:16.994Z,47.16
2023-06-19T12:22:44.431Z,46.84
2023-06-19T12:25:13.952Z,45.93
2023-06-19T12:27:42.652Z,45.35
2023-06-19T12:30:11.427Z,45.37
2023-06-19T12:32:40.061Z,44.00
2023-06-19T12:35:07.988Z,44.28
2023-06-19T12:37:35.704Z,43.25
2023-06-19T12:40:03.368Z,42.92
2023-06-19T12:42:30.830Z,43.40
2023-06-19T12:44:59.543Z,41.77
2023-06-19T12:47:26.850Z,42.25
2023-06-19T12:49:54.107Z,40.02
2023-06-19T12:52:21.166Z,38.98
2023-06-19T12:54:49.459Z,38.58
2023-06-19T12:57:16.770Z,38.73
2023-06-19T12:59:44.052Z,37.55
2023-06-19T13:02:15.203Z,39.55
2023-06-19T13:04:42.991Z,39.43
2023-06-19T13:07:10.314Z,37.79
2023-06-19T13:09:37.624Z,39.10
2023-06-19T13:12:05.717Z,37.21
2023-06-19T13:14:34.526Z,40.46
2023-06-19T13:17:02.194Z,40.13
2023-06-19T13:19:30.819Z,40.83
2023-06-19T13:22:01.626Z,40.50
2023-06-19T13:24:28.944Z,39.14
2023-06-19T13:26:56.620Z,39.47
2023-06-19T13:29:24.224Z,40.45
2023-06-19T13:31:51.513Z,39.27
2023-06-19T13:34:18.791Z,40.25
2023-06-19T13:36:47.516Z,40.93
2023-06-19T13:39:15.585Z,39.56
2023-06-19T13:41:42.791Z,39.11
2023-06-19T13:44:10.126Z,40.26
2023-06-19T13:46:38.409Z,41.03
2023-06-19T13:49:06.329Z,40.32
2023-06-19T13:51:34.732Z,42.27
2023-06-19T13:54:03.546Z,42.26
2023-06-19T13:56:31.081Z,42.55
2023-06-19T13:58:59.506Z,41.72
2023-06-19T14:01:27.124Z,42.54
2023-06-19T14:03:55.611Z,42.82
2023-06-19T14:06:22.940Z,41.64
2023-06-19T14:08:50.469Z,42.32
2023-06-19T14:11:21.584Z,43.40
2023-06-19T14:13:48.841Z,43.09
2023-06-19T14:16:16.080Z,42.56
2023-06-19T14:18:44.368Z,42.52
2023-06-19T14:21:11.631Z,43.42
2023-06-19T14:23:38.905Z,42.84
2023-06-19T14:26:06.160Z,42.24
2023-06-19T14:28:34.872Z,43.78
2023-06-19T14:31:02.189Z,43.25
2023-06-19T14:33:29.477Z,42.55
2023-06-19T14:35:56.835Z,42.44
2023-06-19T14:38:24.132Z,41.72
2023-06-19T14:40:51.407Z,42.16
2023-06-19T14:43:18.729Z,43.02
2023-06-19T14:45:47.447Z,43.38
2023-06-19T14:48:16.164Z,42.77
2023-06-19T14:50:44.565Z,42.87
2023-06-19T14:53:11.901Z,44.24
2023-06-19T14:55:39.191Z,44.17
2023-06-19T14:58:06.713Z,43.60
2023-06-19T15:00:33.946Z,43.29
2023-06-19T15:03:02.734Z,41.57
2023-06-19T15:05:30.123Z,41.54
2023-06-19T15:07:57.607Z,41.18
2023-06-19T15:10:25.039Z,41.55
2023-06-19T15:12:52.458Z,42.10
2023-06-19T15:15:19.771Z,41.81
2023-06-19T15:17:47.079Z,42.13
2023-06-19T15:20:17.116Z,42.17
2023-06-19T15:22:44.383Z,41.39
2023-06-19T15:25:11.656Z,41.78
2023-06-19T15:27:39.200Z,41.52
2023-06-19T15:30:07.759Z,42.32
2023-06-19T15:32:35.022Z,42.91
2023-06-19T15:35:02.378Z,42.11
2023-06-19T15:37:31.276Z,42.62
2023-06-19T15:39:58.642Z,41.57
2023-06-19T15:42:25.955Z,41.37
2023-06-19T15:44:53.271Z,40.81
2023-06-19T15:47:23.035Z,41.89
2023-06-19T15:49:50.377Z,43.53
2023-06-19T15:54:44.657Z,41.35
2023-06-19T15:57:12.170Z,41.67
2023-06-19T15:59:39.370Z,41.33
2023-06-19T16:02:06.546Z,41.98
2023-06-19T16:04:33.851Z,41.66
2023-06-19T16:07:01.173Z,42.26
2023-06-19T16:09:29.848Z,41.89
2023-06-19T16:11:59.927Z,41.78
2023-06-19T16:14:27.163Z,42.32
2023-06-19T16:16:54.233Z,42.32
2023-06-19T16:19:21.810Z,44.54
2023-06-19T16:21:50.751Z,45.04
2023-06-19T16:24:18.057Z,44.72
2023-06-19T16:26:45.404Z,44.21
2023-06-19T16:29:14.061Z,45.49
2023-06-19T16:31:42.541Z,44.55
2023-06-19T16:34:10.828Z,44.38
2023-06-19T16:36:38.092Z,44.05
2023-06-19T16:39:05.145Z,42.43
2023-06-19T16:41:32.352Z,42.43
2023-06-19T16:44:00.895Z,41.85
2023-06-19T16:46:29.570Z,41.54
2023-06-19T16:48:56.891Z,41.25
2023-06-19T16:51:24.197Z,42.68
2023-06-19T16:53:52.494Z,43.59
2023-06-19T16:56:19.884Z,44.63
2023-06-19T16:58:48.229Z,44.83
2023-06-19T17:01:15.517Z,45.53
2023-06-19T17:03:44.246Z,44.50
2023-06-19T17:06:11.562Z,45.01
2023-06-19T17:08:38.833Z,44.48
2023-06-19T17:11:05.979Z,45.39
2023-06-19T17:13:33.164Z,45.28
2023-06-19T17:16:00.188Z,45.71
2023-06-19T17:18:27.639Z,46.78
2023-06-19T17:20:56.322Z,46.91
2023-06-19T17:23:23.586Z,47.94
2023-06-19T17:25:50.700Z,47.22
2023-06-19T17:28:17.920Z,47.85
2023-06-19T17:30:45.261Z,48.49
2023-06-19T17:33:13.260Z,47.51
2023-06-19T17:35:40.527Z,47.32
2023-06-19T17:38:08.935Z,47.33
2023-06-19T17:40:36.186Z,48.41
2023-06-19T17:43:03.480Z,48.48
2023-06-19T17:45:30.559Z,48.00
2023-06-19T17:47:57.838Z,48.66
2023-06-19T17:50:25.593Z,49.58
2023-06-19T17:52:53.232Z,49.17
2023-06-19T17:55:22.193Z,49.02
2023-06-19T17:57:49.442Z,50.14
2023-06-19T18:00:16.756Z,49.74
2023-06-19T18:02:44.156Z,50.49
2023-06-19T18:05:11.548Z,50.03
2023-06-19T18:07:38.876Z,50.40
2023-06-19T18:10:06.900Z,49.56
2023-06-19T18:12:35.399Z,50.24
2023-06-19T18:15:02.732Z,50.77
2023-06-19T18:17:30.105Z,51.13
2023-06-19T18:19:57.435Z,51.83
2023-06-19T18:22:24.966Z,50.87
2023-06-19T18:27:19.267Z,52.37
2023-06-19T18:29:48.002Z,52.57
2023-06-19T18:32:16.327Z,52.86
2023-06-19T18:34:43.684Z,52.69
2023-06-19T18:37:11.011Z,52.38
2023-06-19T18:39:38.089Z,53.05
2023-06-19T18:42:06.165Z,53.97
2023-06-19T18:44:33.432Z,53.91
2023-06-19T18:47:02.344Z,54.15
2023-06-19T18:49:32.504Z,54.23
2023-06-19T18:52:00.079Z,54.42
2023-06-19T18:54:27.134Z,54.11
2023-06-19T18:56:54.388Z,54.95
2023-06-19T18:59:21.473Z,54.34
2023-06-19T19:01:49.006Z,55.13
2023-06-19T19:04:17.791Z,55.29
2023-06-19T19:06:46.547Z,55.87
2023-06-19T19:09:13.808Z,55.84
2023-06-19T19:11:41.103Z,55.97
2023-06-19T19:14:08.252Z,56.24
2023-06-19T19:16:36.441Z,56.92
2023-06-19T19:19:05.096Z,57.02
2023-06-19T19:21:34.022Z,57.63
2023-06-19T19:24:01.470Z,57.21
2023-06-19T19:26:28.870Z,57.77
2023-06-19T19:28:56.200Z,57.68
2023-06-19T19:31:23.780Z,58.54
2023-06-19T19:33:51.128Z,59.71
2023-06-19T19:36:18.724Z,58.90
2023-06-19T19:38:47.382Z,58.92
2023-06-19T19:41:14.633Z,60.02
2023-06-19T19:43:41.880Z,60.00
2023-06-19T19:46:09.221Z,60.08
2023-06-19T19:48:36.454Z,59.92
2023-06-19T19:51:03.683Z,60.63
2023-06-19T19:53:30.939Z,60.97
2023-06-19T19:55:59.807Z,61.17
2023-06-19T19:58:27.161Z,62.00
2023-06-19T20:00:54.554Z,61.88
2023-06-19T20:03:23.548Z,61.77
2023-06-19T20:05:50.951Z,62.71
2023-06-19T20:08:18.252Z,62.34
2023-06-19T20:10:45.503Z,62.96
2023-06-19T20:13:14.155Z,63.29
2023-06-19T20:15:41.566Z,63.39
2023-06-19T20:18:08.679Z,63.22
2023-06-19T20:20:35.918Z,63.42
2023-06-19T20:23:03.195Z,63.43
2023-06-19T20:25:30.559Z,63.45
2023-06-19T20:28:08.009Z,63.07
2023-06-19T20:30:37.126Z,63.47
2023-06-19T20:33:05.224Z,63.70
2023-06-19T20:35:33.708Z,64.44
2023-06-19T20:38:01.222Z,63.54
2023-06-19T20:40:28.717Z,62.84
2023-06-19T20:42:56.228Z,63.89
2023-06-19T20:45:23.348Z,64.20
2023-06-19T20:47:51.915Z,64.33
2023-06-19T20:50:19.612Z,64.60
2023-06-19T20:52:47.133Z,64.40
2023-06-19T20:55:14.235Z,64.71
2023-06-19T20:57:41.435Z,65.52
2023-06-19T21:00:09.744Z,66.64
2023-06-19T21:02:37.117Z,67.31
2023-06-19T21:05:05.708Z,67.39
2023-06-19T21:07:33.030Z,68.82
2023-06-19T21:10:00.496Z,68.11
2023-06-19T21:12:27.980Z,69.50
2023-06-19T21:14:56.024Z,68.76
2023-06-19T21:17:24.002Z,69.05
2023-06-19T21:19:52.515Z,70.41
2023-06-19T21:22:21.211Z,69.11
2023-06-19T21:24:48.906Z,70.22
2023-06-19T21:27:17.695Z,70.73
2023-06-19T21:29:45.080Z,71.13
2023-06-19T21:32:12.683Z,71.92
2023-06-19T21:34:39.742Z,70.44
2023-06-19T21:37:07.376Z,71.33
2023-06-19T21:39:36.009Z,71.83
2023-06-19T21:42:04.347Z,72.50
2023-06-19T21:44:32.843Z,72.50
2023-06-19T21:47:00.631Z,73.66
2023-06-19T21:49:28.892Z,73.93
2023-06-19T21:51:56.403Z,73.16
2023-06-19T21:54:23.422Z,72.61
2023-06-19T21:56:51.933Z,73.15
2023-06-19T21:59:19.260Z,73.72
2023-06-19T22:01:46.509Z,74.00
2023-06-19T22:04:13.841Z,73.06
2023-06-19T22:06:41.591Z,73.23
2023-06-19T22:09:08.935Z,73.04
2023-06-19T22:11:37.259Z,73.93
2023-06-19T22:14:05.945Z,74.62
2023-06-19T22:16:33.322Z,73.43
2023-06-19T22:19:02.083Z,74.22
2023-06-19T22:21:29.768Z,74.02
2023-06-19T22:23:57.099Z,74.98
2023-06-19T22:26:24.404Z,75.29
2023-06-19T22:28:51.670Z,74.28
2023-06-19T22:31:20.354Z,74.45
2023-06-19T22:33:47.623Z,73.80
2023-06-19T22:36:15.119Z,74.32
2023-06-19T22:38:42.685Z,74.77
2023-06-19T22:41:11.978Z,72.41
2023-06-19T22:43:40.270Z,73.26
2023-06-19T22:46:07.569Z,72.42
2023-06-19T22:48:36.407Z,73.31
2023-06-19T22:51:03.714Z,73.46
2023-06-19T22:53:30.958Z,73.09
2023-06-19T22:55:58.221Z,74.72
2023-06-19T22:58:25.515Z,74.91
2023-06-19T23:00:53.055Z,75.09
2023-06-19T23:03:20.366Z,75.22
2023-06-19T23:05:49.192Z,74.14
2023-06-19T23:08:17.841Z,74.80
2023-06-19T23:10:45.078Z,75.97
2023-06-19T23:13:12.747Z,76.58
2023-06-19T23:15:40.005Z,77.33
2023-06-19T23:18:07.325Z,77.63
2023-06-19T23:20:35.733Z,76.46
2023-06-19T23:23:04.386Z,76.63
2023-06-19T23:25:31.769Z,76.17
2023-06-19T23:27:59.022Z,76.76
2023-06-19T23:30:26.271Z,76.99
2023-06-19T23:32:53.559Z,77.68
2023-06-19T23:35:21.125Z,78.17
2023-06-19T23:37:49.615Z,77.56
2023-06-19T23:40:18.259Z,77.44
2023-06-19T23:42:45.921Z,77.42
2023-06-19T23:45:12.996Z,76.85
2023-06-19T23:47:40.317Z,76.11
2023-06-19T23:50:08.666Z,76.89
2023-06-19T23:52:43.501Z,77.27
2023-06-19T23:55:11.962Z,77.67
2023-06-19T23:57:40.884Z,77.78
